Time;durP1;ratioP1;P1;durP2;ratioP2;P2;SDS_P1;SDS_P2;PMS_P1;PMS_P2;Temp;Humidity;BMP_temperature;BMP_pressure;BME280_temperature;BME280_humidity;BME280_pressure;Samples;Min_cycle;Max_cycle;Signal;HPM_P1;HPM_P2
2023/07/11 00:00:32;;;;;;;;;;;17.90;99.90;;;;;;5042908;28;20380;-77
2023/07/11 00:02:57;;;;;;;;;;;17.90;99.90;;;;;;5061648;28;19998;-76
2023/07/11 00:05:23;;;;;;;;;;;17.80;99.90;;;;;;5080527;28;19928;-75
2023/07/11 00:07:49;;;;;;;;;;;17.80;99.90;;;;;;5062493;28;20015;-75
2023/07/11 00:10:17;;;;;;;;;;;17.80;99.90;;;;;;5073813;28;19947;-76
2023/07/11 00:12:42;;;;;;;;;;;17.80;99.90;;;;;;5046900;28;20391;-76
2023/07/11 00:15:09;;;;;;;;;;;17.80;99.90;;;;;;5049128;28;19932;-76
2023/07/11 00:17:37;;;;;;;;;;;17.80;99.90;;;;;;5070940;28;20010;-75
2023/07/11 00:20:04;;;;;;;;;;;17.80;99.90;;;;;;5066920;27;19938;-76
2023/07/11 00:22:30;;;;;;;;;;;17.80;99.90;;;;;;5036498;28;19973;-76
2023/07/11 00:24:56;;;;;;;;;;;17.80;99.90;;;;;;5066257;27;19997;-76
2023/07/11 00:27:23;;;;;;;;;;;17.80;99.90;;;;;;5031593;27;20406;-76
2023/07/11 00:29:49;;;;;;;;;;;17.80;99.90;;;;;;5044723;28;21376;-76
2023/07/11 00:32:15;;;;;;;;;;;17.80;99.90;;;;;;5044858;28;20182;-74
2023/07/11 00:34:44;;;;;;;;;;;17.80;99.90;;;;;;5047839;28;19978;-76
2023/07/11 00:37:10;;;;;;;;;;;17.80;99.90;;;;;;5064799;27;21498;-76
2023/07/11 00:39:36;;;;;;;;;;;17.80;99.90;;;;;;5048147;28;20318;-76
2023/07/11 00:42:03;;;;;;;;;;;17.80;99.90;;;;;;5031980;28;19982;-76
2023/07/11 00:44:47;;;;;;;;;;;17.80;99.90;;;;;;5031310;28;20010;-76
2023/07/11 00:47:13;;;;;;;;;;;17.80;99.90;;;;;;5046834;27;20059;-76
2023/07/11 00:49:38;;;;;;;;;;;17.80;99.90;;;;;;5064613;28;19928;-77
2023/07/11 00:52:04;;;;;;;;;;;17.70;99.90;;;;;;5032068;28;20276;-76
2023/07/11 00:54:32;;;;;;;;;;;17.70;99.90;;;;;;5064959;27;20105;-76
2023/07/11 00:56:58;;;;;;;;;;;17.70;99.90;;;;;;5045287;28;19940;-76
2023/07/11 00:59:24;;;;;;;;;;;17.70;99.90;;;;;;5042521;28;20477;-76
2023/07/11 01:02:01;;;;;;;;;;;17.70;99.90;;;;;;5043852;28;19931;-76
2023/07/11 01:04:27;;;;;;;;;;;17.70;99.90;;;;;;5049303;28;19932;-76
2023/07/11 01:06:52;;;;;;;;;;;17.70;99.90;;;;;;5063875;27;19962;-76
2023/07/11 01:09:18;;;;;;;;;;;17.70;99.90;;;;;;5062167;27;19928;-76
2023/07/11 01:11:57;;;;;;;;;;;17.60;99.90;;;;;;5026601;28;19939;-76
2023/07/11 01:14:23;;;;;;;;;;;17.60;99.90;;;;;;5043597;28;19992;-76
2023/07/11 01:16:49;;;;;;;;;;;17.60;99.90;;;;;;5060493;27;19985;-76
2023/07/11 01:19:15;;;;;;;;;;;17.60;99.90;;;;;;5043129;28;20025;-76
2023/07/11 01:21:40;;;;;;;;;;;17.60;99.90;;;;;;5060495;28;20670;-76
2023/07/11 01:24:06;;;;;;;;;;;17.50;99.90;;;;;;5043763;28;21969;-76
2023/07/11 01:26:32;;;;;;;;;;;17.60;99.90;;;;;;5041288;28;19935;-76
2023/07/11 01:28:58;;;;;;;;;;;17.50;99.90;;;;;;5060246;27;19932;-76
2023/07/11 01:31:24;;;;;;;;;;;17.50;99.90;;;;;;5053109;28;19935;-76
2023/07/11 01:33:49;;;;;;;;;;;17.50;99.90;;;;;;5043018;28;20158;-75
2023/07/11 01:36:15;;;;;;;;;;;17.50;99.90;;;;;;5041871;27;20041;-75
2023/07/11 01:38:41;;;;;;;;;;;17.50;99.90;;;;;;5041226;28;19971;-75
2023/07/11 01:41:06;;;;;;;;;;;17.40;99.90;;;;;;5040739;28;19932;-75
2023/07/11 01:43:32;;;;;;;;;;;17.40;99.90;;;;;;5045438;28;20721;-75
2023/07/11 01:45:58;;;;;;;;;;;17.40;99.90;;;;;;5066628;28;20323;-74
2023/07/11 01:48:23;;;;;;;;;;;17.40;99.90;;;;;;5041827;27;19928;-74
2023/07/11 01:50:49;;;;;;;;;;;17.40;99.90;;;;;;5041332;28;19996;-75
2023/07/11 01:53:15;;;;;;;;;;;17.40;99.90;;;;;;5041247;28;19932;-74
2023/07/11 01:55:40;;;;;;;;;;;17.30;99.90;;;;;;5064819;27;20005;-74
2023/07/11 01:58:06;;;;;;;;;;;17.30;99.90;;;;;;5042461;28;19928;-74
2023/07/11 02:00:32;;;;;;;;;;;17.30;99.90;;;;;;5057388;27;20402;-74
2023/07/11 02:02:57;;;;;;;;;;;17.30;99.90;;;;;;5039507;28;19936;-76
2023/07/11 02:05:23;;;;;;;;;;;17.30;99.90;;;;;;5051674;28;20871;-80
2023/07/11 02:07:48;;;;;;;;;;;17.30;99.90;;;;;;5061504;27;20017;-77
2023/07/11 02:10:14;;;;;;;;;;;17.30;99.90;;;;;;5042362;28;19932;-77
2023/07/11 02:12:40;;;;;;;;;;;17.30;99.90;;;;;;5039395;28;20293;-78
2023/07/11 02:15:06;;;;;;;;;;;17.30;99.90;;;;;;5060611;27;20018;-78
2023/07/11 02:17:32;;;;;;;;;;;17.30;99.90;;;;;;5042689;28;19927;-79
2023/07/11 02:19:57;;;;;;;;;;;17.30;99.90;;;;;;5041810;28;19963;-78
2023/07/11 02:22:23;;;;;;;;;;;17.30;99.90;;;;;;5028259;28;19932;-76
2023/07/11 02:24:50;;;;;;;;;;;17.30;99.90;;;;;;5047344;28;19985;-76
2023/07/11 02:27:15;;;;;;;;;;;17.30;99.90;;;;;;5028856;28;19927;-76
2023/07/11 02:29:41;;;;;;;;;;;17.30;99.90;;;;;;5042319;28;19966;-74
2023/07/11 02:32:07;;;;;;;;;;;17.30;99.90;;;;;;5046144;28;19971;-75
2023/07/11 02:34:32;;;;;;;;;;;17.40;99.90;;;;;;5040336;28;20263;-76
2023/07/11 02:36:58;;;;;;;;;;;17.30;99.90;;;;;;5043491;28;19935;-75
2023/07/11 02:39:24;;;;;;;;;;;17.40;99.90;;;;;;5030171;28;19924;-76
2023/07/11 02:41:49;;;;;;;;;;;17.40;99.90;;;;;;5048869;28;20607;-75
2023/07/11 02:44:15;;;;;;;;;;;17.40;99.90;;;;;;5042795;28;19976;-75
2023/07/11 02:46:40;;;;;;;;;;;17.40;99.90;;;;;;5060665;28;19927;-76
2023/07/11 02:49:10;;;;;;;;;;;17.40;99.90;;;;;;5060538;28;20322;-75
2023/07/11 02:51:38;;;;;;;;;;;17.40;99.90;;;;;;5050309;28;20888;-76
2023/07/11 02:54:06;;;;;;;;;;;17.40;99.90;;;;;;5025448;28;20229;-76
2023/07/11 02:56:34;;;;;;;;;;;17.40;99.90;;;;;;5042048;28;19984;-76
2023/07/11 02:59:00;;;;;;;;;;;17.40;99.90;;;;;;5043285;28;19931;-76
2023/07/11 03:01:27;;;;;;;;;;;17.40;99.90;;;;;;5045515;28;19980;-76
2023/07/11 03:03:52;;;;;;;;;;;17.40;99.90;;;;;;5040583;28;20610;-75
2023/07/11 03:06:18;;;;;;;;;;;17.40;99.90;;;;;;5040478;28;19963;-77
2023/07/11 03:08:43;;;;;;;;;;;17.40;99.90;;;;;;5040883;28;19932;-78
2023/07/11 03:11:09;;;;;;;;;;;17.40;99.90;;;;;;5046119;28;19954;-76
2023/07/11 03:13:35;;;;;;;;;;;17.40;99.90;;;;;;5039894;28;20878;-75
2023/07/11 03:16:02;;;;;;;;;;;17.50;99.90;;;;;;5059263;28;20076;-75
2023/07/11 03:18:27;;;;;;;;;;;17.50;99.90;;;;;;5041306;28;19935;-75
2023/07/11 03:20:56;;;;;;;;;;;17.70;99.90;;;;;;5046055;28;19932;-75
2023/07/11 03:23:22;;;;;;;;;;;17.40;99.90;;;;;;5040714;28;20007;-75
2023/07/11 03:25:48;;;;;;;;;;;17.50;99.90;;;;;;5041811;28;19938;-74
2023/07/11 03:28:14;;;;;;;;;;;17.50;99.90;;;;;;5044305;28;19928;-74
2023/07/11 03:30:39;;;;;;;;;;;17.40;99.90;;;;;;5046002;28;19931;-74
2023/07/11 03:33:05;;;;;;;;;;;17.50;99.90;;;;;;5040904;28;19955;-76
2023/07/11 03:35:31;;;;;;;;;;;17.50;99.90;;;;;;5028427;28;21584;-75
2023/07/11 03:37:56;;;;;;;;;;;17.40;99.90;;;;;;5039696;28;19969;-75
2023/07/11 03:40:24;;;;;;;;;;;17.40;99.90;;;;;;5048282;28;19936;-76
2023/07/11 03:42:49;;;;;;;;;;;17.50;99.90;;;;;;5056707;28;19932;-76
2023/07/11 03:45:15;;;;;;;;;;;17.50;99.90;;;;;;5045955;28;19935;-75
2023/07/11 03:47:41;;;;;;;;;;;18.40;99.90;;;;;;5031083;28;19927;-75
2023/07/11 03:50:06;;;;;;;;;;;17.50;99.90;;;;;;5044710;28;20967;-75
2023/07/11 03:52:34;;;;;;;;;;;17.50;99.90;;;;;;5065266;27;19998;-74
2023/07/11 03:54:59;;;;;;;;;;;17.50;99.90;;;;;;5043023;28;19927;-76
2023/07/11 03:57:25;;;;;;;;;;;17.50;99.90;;;;;;5042436;28;19932;-76
2023/07/11 03:59:50;;;;;;;;;;;17.50;99.90;;;;;;5045769;28;19931;-76
2023/07/11 04:02:16;;;;;;;;;;;17.50;99.90;;;;;;5064556;28;19931;-76
2023/07/11 04:04:42;;;;;;;;;;;17.50;99.90;;;;;;5065522;27;21538;-75
2023/07/11 04:07:08;;;;;;;;;;;17.50;99.90;;;;;;5042998;28;19938;-75
2023/07/11 04:09:33;;;;;;;;;;;17.40;99.90;;;;;;5046333;28;19932;-76
2023/07/11 04:11:59;;;;;;;;;;;17.40;99.90;;;;;;5046663;28;20003;-76
2023/07/11 04:14:24;;;;;;;;;;;17.40;99.90;;;;;;5046668;28;19920;-75
2023/07/11 04:16:50;;;;;;;;;;;17.40;99.90;;;;;;5047978;28;19935;-75
2023/07/11 04:19:16;;;;;;;;;;;18.00;99.90;;;;;;5043859;28;20237;-75
2023/07/11 04:21:42;;;;;;;;;;;17.50;99.90;;;;;;5041537;28;20008;-74
2023/07/11 04:24:07;;;;;;;;;;;17.50;99.90;;;;;;5048046;28;19928;-74
2023/07/11 04:26:34;;;;;;;;;;;17.50;99.90;;;;;;5060785;27;19932;-75
2023/07/11 04:28:59;;;;;;;;;;;17.50;99.90;;;;;;5046692;28;20042;-74
2023/07/11 04:31:26;;;;;;;;;;;17.50;99.90;;;;;;5063609;28;19991;-74
2023/07/11 04:33:51;;;;;;;;;;;18.00;99.90;;;;;;5050888;28;19928;-75
2023/07/11 04:36:17;;;;;;;;;;;17.50;99.90;;;;;;5043696;28;19982;-75
2023/07/11 04:38:43;;;;;;;;;;;17.40;99.90;;;;;;5065285;27;20317;-75
2023/07/11 04:41:09;;;;;;;;;;;17.60;99.90;;;;;;5042482;28;19932;-73
2023/07/11 04:43:34;;;;;;;;;;;17.60;99.90;;;;;;5026520;28;20428;-73
2023/07/11 04:46:01;;;;;;;;;;;17.60;99.90;;;;;;5033405;28;19931;-75
2023/07/11 04:48:26;;;;;;;;;;;17.70;99.90;;;;;;5046347;28;20350;-75
2023/07/11 04:51:11;;;;;;;;;;;17.70;99.90;;;;;;5066517;27;19932;-74
2023/07/11 04:53:36;;;;;;;;;;;17.70;99.90;;;;;;5033733;28;19938;-75
2023/07/11 04:56:09;;;;;;;;;;;17.80;99.90;;;;;;5041961;27;19931;-75
2023/07/11 04:58:35;;;;;;;;;;;17.90;99.90;;;;;;5047640;27;20415;-76
2023/07/11 05:01:01;;;;;;;;;;;17.90;99.90;;;;;;5044374;28;20550;-76
2023/07/11 05:03:27;;;;;;;;;;;18.00;99.90;;;;;;5033068;27;19932;-82
2023/07/11 05:05:53;;;;;;;;;;;18.00;99.90;;;;;;5031745;28;20021;-79
2023/07/11 05:08:19;;;;;;;;;;;18.00;99.90;;;;;;5034057;27;22256;-77
2023/07/11 05:10:52;;;;;;;;;;;18.10;99.90;;;;;;5046950;28;20385;-78
2023/07/11 05:13:18;;;;;;;;;;;18.10;99.90;;;;;;5045431;28;19935;-78
2023/07/11 05:15:43;;;;;;;;;;;18.10;99.90;;;;;;5045735;28;20381;-78
2023/07/11 05:18:09;;;;;;;;;;;18.20;99.90;;;;;;5061649;27;19928;-78
2023/07/11 05:20:35;;;;;;;;;;;18.20;99.90;;;;;;5042119;28;19928;-79
2023/07/11 05:23:00;;;;;;;;;;;18.30;99.90;;;;;;5065177;27;20278;-79
2023/07/11 05:25:26;;;;;;;;;;;18.30;99.90;;;;;;5066005;27;20454;-78
2023/07/11 05:27:51;;;;;;;;;;;18.30;99.90;;;;;;5047503;28;20358;-79
2023/07/11 05:30:17;;;;;;;;;;;18.50;99.90;;;;;;5043558;28;19932;-79
2023/07/11 05:32:43;;;;;;;;;;;18.50;99.90;;;;;;5066940;28;22265;-79
2023/07/11 05:35:08;;;;;;;;;;;18.60;99.90;;;;;;5063839;27;19932;-79
2023/07/11 05:37:34;;;;;;;;;;;18.60;99.90;;;;;;5048670;28;19928;-78
2023/07/11 05:40:00;;;;;;;;;;;18.60;99.90;;;;;;5045354;28;20862;-78
2023/07/11 05:42:25;;;;;;;;;;;18.80;99.90;;;;;;5044329;27;19974;-78
2023/07/11 05:44:51;;;;;;;;;;;18.80;99.90;;;;;;5060385;28;20705;-79
2023/07/11 05:47:16;;;;;;;;;;;18.90;99.90;;;;;;5036073;28;19956;-79
2023/07/11 05:49:42;;;;;;;;;;;18.90;99.90;;;;;;5079142;28;20405;-78
2023/07/11 05:52:08;;;;;;;;;;;19.00;99.90;;;;;;5061918;28;19935;-78
2023/07/11 05:54:33;;;;;;;;;;;19.00;99.90;;;;;;5062549;28;20395;-77
2023/07/11 05:57:01;;;;;;;;;;;19.00;99.90;;;;;;5060080;28;19931;-79
2023/07/11 05:59:27;;;;;;;;;;;19.10;99.90;;;;;;5059410;28;19939;-79
2023/07/11 06:01:52;;;;;;;;;;;19.20;99.90;;;;;;5055209;28;19973;-78
2023/07/11 06:04:18;;;;;;;;;;;19.40;99.90;;;;;;5079029;28;19928;-79
2023/07/11 06:06:44;;;;;;;;;;;19.60;99.90;;;;;;5078894;27;19939;-80
2023/07/11 06:09:14;;;;;;;;;;;19.80;99.90;;;;;;5079947;28;20382;-77
2023/07/11 06:11:40;;;;;;;;;;;20.00;99.90;;;;;;5079626;27;19928;-74
2023/07/11 06:14:06;;;;;;;;;;;20.20;99.90;;;;;;5078856;28;19930;-74
2023/07/11 06:16:31;;;;;;;;;;;20.30;99.90;;;;;;5081320;28;20007;-74
2023/07/11 06:18:58;;;;;;;;;;;20.50;99.90;;;;;;5080976;28;19930;-74
2023/07/11 06:21:24;;;;;;;;;;;20.60;99.90;;;;;;5079391;28;19932;-74
2023/07/11 06:23:49;;;;;;;;;;;20.90;99.90;;;;;;5080902;28;19939;-74
2023/07/11 06:26:15;;;;;;;;;;;21.10;99.90;;;;;;5082999;28;19934;-75
2023/07/11 06:28:41;;;;;;;;;;;21.20;99.90;;;;;;5063261;28;19924;-74
2023/07/11 06:31:08;;;;;;;;;;;21.30;99.90;;;;;;5063354;28;20071;-74
2023/07/11 06:33:33;;;;;;;;;;;21.40;99.90;;;;;;5065210;28;20402;-74
2023/07/11 06:36:01;;;;;;;;;;;21.40;99.90;;;;;;5065805;28;19928;-75
2023/07/11 06:38:26;;;;;;;;;;;21.40;99.90;;;;;;5064620;28;19924;-73
2023/07/11 06:40:53;;;;;;;;;;;21.50;99.90;;;;;;5079750;28;19928;-73
2023/07/11 06:43:19;;;;;;;;;;;21.60;99.90;;;;;;5062520;28;19935;-74
2023/07/11 06:45:46;;;;;;;;;;;21.70;99.90;;;;;;5061960;28;19924;-74
2023/07/11 06:48:12;;;;;;;;;;;21.90;99.90;;;;;;5057479;28;20278;-73
2023/07/11 06:50:41;;;;;;;;;;;22.00;99.90;;;;;;5080904;28;19931;-74
2023/07/11 06:53:07;;;;;;;;;;;22.20;99.90;;;;;;5059228;28;19927;-76
2023/07/11 06:55:33;;;;;;;;;;;22.30;99.90;;;;;;5062437;28;19959;-75
2023/07/11 06:57:58;;;;;;;;;;;22.40;99.90;;;;;;5058780;28;20010;-75
2023/07/11 07:00:26;;;;;;;;;;;22.40;99.90;;;;;;5061500;28;19946;-76
2023/07/11 07:02:52;;;;;;;;;;;22.40;99.90;;;;;;5067697;28;21488;-76
2023/07/11 07:05:18;;;;;;;;;;;22.50;99.90;;;;;;5049889;28;19928;-77
2023/07/11 07:07:43;;;;;;;;;;;22.50;99.90;;;;;;5066407;28;20028;-76
2023/07/11 07:10:09;;;;;;;;;;;22.50;99.90;;;;;;5082922;28;20315;-76
2023/07/11 07:12:34;;;;;;;;;;;22.50;99.90;;;;;;5067832;28;20013;-75
2023/07/11 07:15:00;;;;;;;;;;;22.50;99.90;;;;;;5066512;28;19938;-75
2023/07/11 07:17:26;;;;;;;;;;;22.80;99.90;;;;;;5060851;28;19928;-75
2023/07/11 07:19:51;;;;;;;;;;;22.60;99.90;;;;;;5085413;28;19928;-75
2023/07/11 07:22:17;;;;;;;;;;;22.70;99.90;;;;;;5068216;28;20363;-75
2023/07/11 07:24:44;;;;;;;;;;;22.80;99.90;;;;;;5067550;28;19928;-77
2023/07/11 07:27:10;;;;;;;;;;;22.90;99.90;;;;;;5069247;28;19975;-77
2023/07/11 07:29:35;;;;;;;;;;;23.00;99.90;;;;;;5057482;28;20782;-77
2023/07/11 07:32:01;;;;;;;;;;;23.10;99.90;;;;;;5071227;28;19924;-77
2023/07/11 07:34:27;;;;;;;;;;;23.30;99.90;;;;;;5068932;28;20339;-75
2023/07/11 07:36:52;;;;;;;;;;;23.40;99.90;;;;;;5088474;27;19978;-75
2023/07/11 07:39:18;;;;;;;;;;;23.50;99.90;;;;;;5089615;27;20602;-76
2023/07/11 07:41:43;;;;;;;;;;;23.70;99.90;;;;;;5045727;28;19940;-77
2023/07/11 07:44:09;;;;;;;;;;;23.80;99.90;;;;;;5091372;28;20037;-75
2023/07/11 07:46:34;;;;;;;;;;;23.90;99.90;;;;;;5089457;28;19931;-76
2023/07/11 07:49:03;;;;;;;;;;;24.00;99.90;;;;;;5097951;28;19924;-74
2023/07/11 07:51:29;;;;;;;;;;;24.10;99.90;;;;;;5084804;28;19975;-78
2023/07/11 07:53:54;;;;;;;;;;;24.10;99.90;;;;;;5045415;28;20278;-77
2023/07/11 07:56:21;;;;;;;;;;;24.10;99.90;;;;;;5078829;27;20433;-76
2023/07/11 07:58:47;;;;;;;;;;;24.20;99.90;;;;;;5065993;28;19936;-75
2023/07/11 08:01:14;;;;;;;;;;;24.20;99.90;;;;;;5063856;28;20902;-76
2023/07/11 08:03:40;;;;;;;;;;;24.30;99.90;;;;;;5061865;28;20006;-74
2023/07/11 08:06:07;;;;;;;;;;;24.40;99.90;;;;;;5044162;28;19927;-75
2023/07/11 08:08:33;;;;;;;;;;;24.50;99.90;;;;;;5062027;28;19925;-76
2023/07/11 08:11:02;;;;;;;;;;;24.70;99.90;;;;;;5046857;27;20389;-76
2023/07/11 08:13:28;;;;;;;;;;;24.80;99.90;;;;;;5061074;28;19925;-80
2023/07/11 08:15:54;;;;;;;;;;;24.90;99.90;;;;;;5062825;28;19938;-76
2023/07/11 08:18:19;;;;;;;;;;;25.00;99.90;;;;;;5061465;27;19923;-76
2023/07/11 08:20:45;;;;;;;;;;;25.10;99.90;;;;;;5074886;27;20428;-74
2023/07/11 08:23:11;;;;;;;;;;;25.10;99.90;;;;;;5061285;28;19950;-74
2023/07/11 08:25:36;;;;;;;;;;;25.10;99.90;;;;;;5060841;28;20494;-76
2023/07/11 08:28:04;;;;;;;;;;;25.30;99.90;;;;;;5076865;28;19928;-74
2023/07/11 08:30:33;;;;;;;;;;;25.20;99.90;;;;;;5061124;28;19935;-78
2023/07/11 08:32:59;;;;;;;;;;;25.40;99.90;;;;;;5068978;28;20181;-77
2023/07/11 08:35:25;;;;;;;;;;;25.40;99.90;;;;;;5081047;28;20386;-75
2023/07/11 08:37:50;;;;;;;;;;;25.50;99.90;;;;;;5043234;28;19959;-74
2023/07/11 08:40:17;;;;;;;;;;;25.60;99.90;;;;;;5054740;28;20006;-76
2023/07/11 08:42:44;;;;;;;;;;;25.60;99.90;;;;;;5060098;28;19938;-76
2023/07/11 08:45:19;;;;;;;;;;;25.70;99.90;;;;;;5048254;28;20652;-75
2023/07/11 08:47:53;;;;;;;;;;;25.90;99.90;;;;;;5076173;28;21484;-75
2023/07/11 08:50:21;;;;;;;;;;;26.20;99.90;;;;;;5078035;28;19928;-74
2023/07/11 08:52:52;;;;;;;;;;;26.50;99.90;;;;;;5056848;28;19938;-74
2023/07/11 08:55:24;;;;;;;;;;;26.90;99.90;;;;;;5067818;28;19930;-75
2023/07/11 08:58:02;;;;;;;;;;;27.30;99.90;;;;;;5076648;28;19982;-75
2023/07/11 09:00:29;;;;;;;;;;;27.50;99.90;;;;;;5057726;28;20371;-74
2023/07/11 09:03:04;;;;;;;;;;;27.60;99.90;;;;;;5063248;28;19928;-75
2023/07/11 09:05:30;;;;;;;;;;;27.70;99.90;;;;;;5065420;28;19966;-75
2023/07/11 09:07:56;;;;;;;;;;;27.80;99.90;;;;;;5055664;28;20324;-75
2023/07/11 09:10:25;;;;;;;;;;;27.80;99.90;;;;;;5059219;28;19932;-76
2023/07/11 09:13:05;;;;;;;;;;;28.10;99.90;;;;;;5074863;27;19928;-75
2023/07/11 09:15:51;;;;;;;;;;;28.40;99.90;;;;;;5058900;28;20100;-77
2023/07/11 09:18:29;;;;;;;;;;;28.60;99.90;;;;;;5021223;28;19935;-75
2023/07/11 09:21:05;;;;;;;;;;;28.80;99.90;;;;;;5056715;28;19928;-75
2023/07/11 09:23:50;;;;;;;;;;;28.80;99.90;;;;;;5055442;28;20330;-77
2023/07/11 09:26:20;;;;;;;;;;;28.60;99.50;;;;;;5024586;28;19982;-75
2023/07/11 09:28:46;;;;;;;;;;;28.40;99.70;;;;;;5056250;28;19990;-75
2023/07/11 09:31:15;;;;;;;;;;;28.60;99.90;;;;;;5077465;28;20438;-75
2023/07/11 09:33:44;;;;;;;;;;;28.70;99.90;;;;;;5082078;27;19924;-74
2023/07/11 09:36:21;;;;;;;;;;;28.90;99.80;;;;;;5079582;28;19931;-75
2023/07/11 09:38:54;;;;;;;;;;;29.10;99.70;;;;;;5073218;28;20355;-75
2023/07/11 09:41:23;;;;;;;;;;;29.30;99.90;;;;;;5058845;28;19936;-74
2023/07/11 09:43:51;;;;;;;;;;;29.40;99.00;;;;;;5057659;28;20430;-75
2023/07/11 09:46:21;;;;;;;;;;;29.50;98.20;;;;;;5074422;27;19924;-75
2023/07/11 09:48:48;;;;;;;;;;;29.70;99.30;;;;;;5075920;27;19973;-76
2023/07/11 09:51:28;;;;;;;;;;;29.80;97.80;;;;;;5057768;28;20640;-75
2023/07/11 09:53:54;;;;;;;;;;;29.70;98.50;;;;;;5061369;28;20042;-81
2023/07/11 09:56:20;;;;;;;;;;;29.80;98.80;;;;;;5058042;28;19928;-74
2023/07/11 09:58:49;;;;;;;;;;;30.00;97.40;;;;;;5058454;28;19971;-74
2023/07/11 10:01:17;;;;;;;;;;;30.00;97.90;;;;;;5052522;28;19935;-76
2023/07/11 10:03:45;;;;;;;;;;;30.10;97.30;;;;;;5055341;28;19928;-75
2023/07/11 10:06:23;;;;;;;;;;;30.00;96.10;;;;;;5049510;28;20283;-75
2023/07/11 10:08:49;;;;;;;;;;;30.00;96.40;;;;;;5056396;28;19978;-74
2023/07/11 10:11:15;;;;;;;;;;;29.80;96.90;;;;;;5055756;27;19931;-75
2023/07/11 10:13:41;;;;;;;;;;;29.70;96.20;;;;;;5058507;28;19927;-76
2023/07/11 10:16:10;;;;;;;;;;;29.50;96.80;;;;;;5038298;28;20230;-74
2023/07/11 10:18:36;;;;;;;;;;;29.40;97.00;;;;;;5075817;28;20620;-74
2023/07/11 10:21:12;;;;;;;;;;;29.20;96.30;;;;;;5074990;28;19935;-73
2023/07/11 10:23:41;;;;;;;;;;;29.10;95.00;;;;;;5076046;28;21614;-73
2023/07/11 10:26:18;;;;;;;;;;;28.90;96.40;;;;;;5058071;28;19970;-73
2023/07/11 10:28:47;;;;;;;;;;;28.70;96.10;;;;;;5055823;28;20385;-73
2023/07/11 10:31:16;;;;;;;;;;;28.50;96.10;;;;;;5072341;27;19938;-73
2023/07/11 10:33:53;;;;;;;;;;;28.60;96.00;;;;;;5077148;27;19975;-73
2023/07/11 10:36:33;;;;;;;;;;;28.60;96.30;;;;;;5075941;28;20322;-73
2023/07/11 10:39:04;;;;;;;;;;;28.60;96.70;;;;;;5073001;28;20112;-72
2023/07/11 10:41:36;;;;;;;;;;;28.60;95.90;;;;;;5053708;28;19928;-73
2023/07/11 10:44:03;;;;;;;;;;;28.70;95.70;;;;;;5068250;28;20018;-73
2023/07/11 10:46:32;;;;;;;;;;;28.70;95.80;;;;;;5055528;28;19928;-73
2023/07/11 10:49:01;;;;;;;;;;;29.00;96.60;;;;;;5060089;28;20358;-72
2023/07/11 10:51:39;;;;;;;;;;;29.30;95.30;;;;;;5062833;28;20016;-73
2023/07/11 10:54:09;;;;;;;;;;;29.20;95.80;;;;;;5065459;28;19932;-72
2023/07/11 10:56:44;;;;;;;;;;;28.80;95.00;;;;;;5050589;28;20002;-72
2023/07/11 10:59:13;;;;;;;;;;;28.50;95.20;;;;;;5083897;28;19928;-73
2023/07/11 11:01:46;;;;;;;;;;;28.40;95.80;;;;;;5064897;28;20409;-73
2023/07/11 11:04:24;;;;;;;;;;;28.40;95.40;;;;;;5079261;28;19935;-73
2023/07/11 11:06:57;;;;;;;;;;;28.30;95.80;;;;;;5080716;28;19928;-73
2023/07/11 11:09:23;;;;;;;;;;;28.50;95.50;;;;;;5086756;28;19928;-73
2023/07/11 11:12:08;;;;;;;;;;;28.70;95.80;;;;;;5079066;28;19985;-73
2023/07/11 11:15:03;;;;;;;;;;;28.90;95.00;;;;;;5064254;28;19936;-73
2023/07/11 11:17:31;;;;;;;;;;;29.20;95.10;;;;;;5017501;28;19931;-73
2023/07/11 11:20:03;;;;;;;;;;;29.20;94.80;;;;;;5077926;28;20492;-72
2023/07/11 11:22:34;;;;;;;;;;;29.90;94.00;;;;;;5064764;28;19931;-73
2023/07/11 11:25:02;;;;;;;;;;;29.50;94.60;;;;;;5067210;28;19931;-73
2023/07/11 11:27:38;;;;;;;;;;;29.70;94.30;;;;;;5063847;28;20325;-73
2023/07/11 11:30:10;;;;;;;;;;;29.70;94.70;;;;;;5081130;28;19935;-73
2023/07/11 11:32:53;;;;;;;;;;;29.70;94.20;;;;;;5065112;28;19924;-73
2023/07/11 11:35:19;;;;;;;;;;;29.80;95.00;;;;;;5082425;28;19952;-73
2023/07/11 11:38:08;;;;;;;;;;;29.50;95.10;;;;;;5081991;28;19971;-74
2023/07/11 11:40:36;;;;;;;;;;;29.30;95.60;;;;;;5065952;28;19989;-74
2023/07/11 11:43:04;;;;;;;;;;;29.20;96.30;;;;;;5068243;28;19935;-74
2023/07/11 11:45:31;;;;;;;;;;;29.10;96.60;;;;;;5070813;28;21572;-74
2023/07/11 11:48:00;;;;;;;;;;;29.00;96.50;;;;;;5070365;28;20009;-73
2023/07/11 11:50:28;;;;;;;;;;;28.90;96.70;;;;;;5086644;28;20015;-73
2023/07/11 11:52:55;;;;;;;;;;;28.70;96.80;;;;;;5086917;28;19939;-73
2023/07/11 11:55:26;;;;;;;;;;;28.60;97.30;;;;;;5065915;28;19928;-74
2023/07/11 11:57:51;;;;;;;;;;;28.50;97.30;;;;;;5061817;28;19928;-73
2023/07/11 12:00:36;;;;;;;;;;;28.60;97.60;;;;;;5065363;28;20428;-73
2023/07/11 12:03:03;;;;;;;;;;;28.70;97.60;;;;;;5068205;28;19928;-74
2023/07/11 12:05:29;;;;;;;;;;;28.60;97.20;;;;;;5050785;28;19926;-73
2023/07/11 12:08:13;;;;;;;;;;;28.60;97.40;;;;;;5070880;28;19928;-73
2023/07/11 12:10:58;;;;;;;;;;;28.40;97.30;;;;;;5085957;28;20156;-73
2023/07/11 12:13:29;;;;;;;;;;;28.20;97.30;;;;;;5083787;28;19932;-73
2023/07/11 12:15:55;;;;;;;;;;;27.90;97.70;;;;;;5071133;28;19932;-73
2023/07/11 12:18:29;;;;;;;;;;;27.90;98.30;;;;;;5088364;28;19935;-72
2023/07/11 12:21:13;;;;;;;;;;;27.80;97.90;;;;;;5068649;28;19923;-73
2023/07/11 12:23:43;;;;;;;;;;;28.00;98.00;;;;;;5089770;28;19977;-73
2023/07/11 12:26:11;;;;;;;;;;;27.90;98.20;;;;;;5089222;27;19963;-72
2023/07/11 12:28:36;;;;;;;;;;;27.90;98.20;;;;;;5085392;28;20315;-72
2023/07/11 12:31:03;;;;;;;;;;;27.70;98.00;;;;;;5070887;28;20049;-73
2023/07/11 12:33:33;;;;;;;;;;;27.50;98.30;;;;;;5068551;28;20382;-73
2023/07/11 12:36:17;;;;;;;;;;;27.40;98.30;;;;;;5070487;28;21706;-73
2023/07/11 12:38:47;;;;;;;;;;;27.40;98.50;;;;;;5091214;27;20442;-72
2023/07/11 12:41:22;;;;;;;;;;;28.10;98.80;;;;;;5069751;28;19928;-72
2023/07/11 12:43:48;;;;;;;;;;;27.40;98.40;;;;;;5080004;28;19932;-73
2023/07/11 12:46:22;;;;;;;;;;;27.40;98.80;;;;;;5085358;28;20418;-73
2023/07/11 12:48:49;;;;;;;;;;;27.80;98.70;;;;;;5086077;28;19936;-72
2023/07/11 12:51:23;;;;;;;;;;;27.60;98.90;;;;;;5070814;28;19968;-73
2023/07/11 12:53:51;;;;;;;;;;;27.80;98.70;;;;;;5084927;28;20438;-72
2023/07/11 12:56:17;;;;;;;;;;;27.70;98.70;;;;;;5087362;28;19990;-72
2023/07/11 12:58:42;;;;;;;;;;;27.40;98.80;;;;;;5089486;28;20831;-72
2023/07/11 13:01:13;;;;;;;;;;;27.00;99.30;;;;;;5087018;28;19986;-72
2023/07/11 13:03:39;;;;;;;;;;;26.90;99.60;;;;;;5073931;28;19932;-72
2023/07/11 13:06:07;;;;;;;;;;;26.90;99.90;;;;;;5084960;28;20015;-73
2023/07/11 13:08:34;;;;;;;;;;;27.00;99.90;;;;;;5071378;28;20263;-72
2023/07/11 13:11:02;;;;;;;;;;;26.90;99.60;;;;;;5067477;28;19924;-72
2023/07/11 13:13:29;;;;;;;;;;;26.90;99.40;;;;;;5070841;28;19924;-72
2023/07/11 13:15:57;;;;;;;;;;;26.80;99.50;;;;;;5051694;28;19924;-73
2023/07/11 13:18:35;;;;;;;;;;;26.60;99.50;;;;;;5053301;28;19927;-72
2023/07/11 13:21:02;;;;;;;;;;;26.60;99.90;;;;;;5073490;28;19924;-73
2023/07/11 13:23:29;;;;;;;;;;;26.60;99.90;;;;;;5088877;28;19924;-74
2023/07/11 13:25:55;;;;;;;;;;;26.30;99.90;;;;;;5068834;28;19931;-73
2023/07/11 13:28:22;;;;;;;;;;;25.90;99.90;;;;;;5070629;28;19932;-74
2023/07/11 13:30:58;;;;;;;;;;;25.50;99.90;;;;;;5072888;28;19928;-72
2023/07/11 13:33:28;;;;;;;;;;;25.50;99.90;;;;;;5068674;28;19932;-74
2023/07/11 13:35:57;;;;;;;;;;;25.70;99.90;;;;;;5076322;28;19936;-74
2023/07/11 13:38:32;;;;;;;;;;;25.80;99.90;;;;;;5066248;28;19928;-74
2023/07/11 13:40:59;;;;;;;;;;;25.80;99.90;;;;;;5070435;28;19974;-74
2023/07/11 13:43:25;;;;;;;;;;;25.80;99.90;;;;;;5073221;28;19927;-74
2023/07/11 13:45:51;;;;;;;;;;;25.80;99.90;;;;;;5055232;28;19928;-74
2023/07/11 13:48:24;;;;;;;;;;;25.50;99.90;;;;;;5069631;28;19973;-74
2023/07/11 13:51:08;;;;;;;;;;;25.50;99.90;;;;;;5067267;28;19928;-74
2023/07/11 13:53:35;;;;;;;;;;;25.40;99.90;;;;;;5074165;28;19939;-74
2023/07/11 13:56:01;;;;;;;;;;;25.30;99.90;;;;;;5087685;28;19968;-74
2023/07/11 13:58:27;;;;;;;;;;;25.30;99.90;;;;;;5073763;28;20743;-74
2023/07/11 14:00:53;;;;;;;;;;;25.40;99.90;;;;;;5073149;28;19989;-74
2023/07/11 14:03:23;;;;;;;;;;;25.50;99.90;;;;;;5090107;28;20325;-75
2023/07/11 14:05:50;;;;;;;;;;;25.70;99.90;;;;;;5070175;28;19939;-74
2023/07/11 14:08:17;;;;;;;;;;;25.90;99.90;;;;;;5071231;28;20884;-75
2023/07/11 14:10:44;;;;;;;;;;;25.90;99.90;;;;;;5093555;28;20382;-74
2023/07/11 14:13:13;;;;;;;;;;;25.90;99.90;;;;;;5092820;28;19927;-75
2023/07/11 14:15:39;;;;;;;;;;;25.80;99.90;;;;;;5074619;28;20382;-73
2023/07/11 14:18:08;;;;;;;;;;;25.70;99.90;;;;;;5073651;28;19928;-71
2023/07/11 14:20:33;;;;;;;;;;;25.50;99.90;;;;;;5090686;28;19949;-72